LKCB weather

Cheb Airport
Cheb, Carlsbad Region, Czech Republic

Public forecast

Using degrees Celsius for public forecast. Weather courtesy of forecast.io.

Closest aviation weather report (METAR) to Cheb Airport

Closest report is Karlovy Vary International Airport, 21.0 nm (39.0 km) ENE. Retrieved 2020/08/04 22:00 UTC (39 minutes ago):

LKKV 042200Z VRB01KT CAVOK 10/10 Q1019

Closest aviation forecast (TAF) to Cheb Airport

Closest forecast is Karlovy Vary International Airport, 21.0 nm (39.0 km) ENE. Retrieved 2020/08/04 18:17 UTC (4 hours ago):

TAF LKKV 041700Z 0418/0600 VRB02KT 9999 SCT035 TEMPO 0418/0421 7000 -SHRA BKN017 TEMPO 0500/0505 3000 BR SCT004 TEMPO 0509/0516 9999 BKN035 BECMG 0509/0512 11006KT